Time;durP1;ratioP1;P1;durP2;ratioP2;P2;SDS_P1;SDS_P2;PMS_P1;PMS_P2;Temp;Humidity;BMP_temperature;BMP_pressure;BME280_temperature;BME280_humidity;BME280_pressure;Samples;Min_cycle;Max_cycle;Signal;HPM_P1;HPM_P2
2023/01/09 00:01:57;;;;;;;;;;;;;;;;;;5097494;28;20283;-67
2023/01/09 00:04:23;;;;;;;;;;;;;;;;;;5096950;28;19908;-68
2023/01/09 00:06:52;;;;;;;;;;;;;;;;;;5079424;28;20007;-68
2023/01/09 00:09:18;;;;;;;;;;;;;;;;;;5096908;28;19908;-68
2023/01/09 00:11:44;;;;;;;;;;;;;;;;;;5079036;28;20007;-68
2023/01/09 00:14:10;;;;;;;;;;;;;;;;;;5096969;28;19969;-67
2023/01/09 00:16:36;;;;;;;;;;;;;;;;;;5096823;28;19925;-68
2023/01/09 00:19:02;;;;;;;;;;;;;;;;;;5079022;28;20318;-68
2023/01/09 00:21:28;;;;;;;;;;;;;;;;;;5097046;28;19915;-68
2023/01/09 00:23:54;;;;;;;;;;;;;;;;;;5096622;28;19912;-68
2023/01/09 00:26:20;;;;;;;;;;;;;;;;;;5097036;28;19918;-68
2023/01/09 00:28:46;;;;;;;;;;;;;;;;;;5097010;28;19998;-67
2023/01/09 00:31:12;;;;;;;;;;;;;;;;;;5096464;28;19908;-66
2023/01/09 00:33:38;;;;;;;;;;;;;;;;;;5078643;28;19908;-67
2023/01/09 00:36:04;;;;;;;;;;;;;;;;;;5096708;28;19920;-65
2023/01/09 00:38:30;;;;;;;;;;;;;;;;;;5096402;28;20372;-67
2023/01/09 00:40:56;;;;;;;;;;;;;;;;;;5096635;28;19908;-66
2023/01/09 00:43:22;;;;;;;;;;;;;;;;;;5096664;28;19934;-66
2023/01/09 00:45:48;;;;;;;;;;;;;;;;;;5078013;28;20314;-68
2023/01/09 00:48:14;;;;;;;;;;;;;;;;;;5078191;28;19912;-67
2023/01/09 00:50:40;;;;;;;;;;;;;;;;;;5096501;28;20428;-68
2023/01/09 00:53:06;;;;;;;;;;;;;;;;;;5096013;28;19912;-68
2023/01/09 00:55:31;;;;;;;;;;;;;;;;;;5096472;28;19958;-68
2023/01/09 00:57:57;;;;;;;;;;;;;;;;;;5096567;28;19909;-67
2023/01/09 01:00:23;;;;;;;;;;;;;;;;;;5077758;28;19912;-67
2023/01/09 01:02:49;;;;;;;;;;;;;;;;;;5096235;28;20275;-67
2023/01/09 01:08:00;;;;;;;;;;;;;;;;;;5096230;28;19916;-67
2023/01/09 01:10:26;;;;;;;;;;;;;;;;;;5096247;28;19908;-66
2023/01/09 01:12:52;;;;;;;;;;;;;;;;;;5077610;28;19908;-69
2023/01/09 01:15:18;;;;;;;;;;;;;;;;;;5096000;28;19920;-67
2023/01/09 01:17:44;;;;;;;;;;;;;;;;;;5096038;28;19991;-68
2023/01/09 01:20:10;;;;;;;;;;;;;;;;;;5095566;28;19908;-68
2023/01/09 01:22:36;;;;;;;;;;;;;;;;;;5095914;28;20321;-68
2023/01/09 01:25:02;;;;;;;;;;;;;;;;;;5077758;28;19940;-68
2023/01/09 01:27:28;;;;;;;;;;;;;;;;;;5095811;28;19915;-69
2023/01/09 01:29:54;;;;;;;;;;;;;;;;;;5095696;28;19912;-66
2023/01/09 01:32:20;;;;;;;;;;;;;;;;;;5095675;28;19986;-66
2023/01/09 01:34:46;;;;;;;;;;;;;;;;;;5095171;28;19920;-66
2023/01/09 01:37:12;;;;;;;;;;;;;;;;;;5077710;28;19946;-67
2023/01/09 01:39:38;;;;;;;;;;;;;;;;;;5077405;28;19908;-68
2023/01/09 01:42:03;;;;;;;;;;;;;;;;;;5095196;28;19918;-68
2023/01/09 01:44:29;;;;;;;;;;;;;;;;;;5095495;28;19908;-68
2023/01/09 01:46:55;;;;;;;;;;;;;;;;;;5077238;28;20287;-68
2023/01/09 01:49:21;;;;;;;;;;;;;;;;;;5076841;28;20003;-68
2023/01/09 01:51:47;;;;;;;;;;;;;;;;;;5077100;28;19953;-68
2023/01/09 01:54:13;;;;;;;;;;;;;;;;;;5095236;28;19912;-68
2023/01/09 01:56:39;;;;;;;;;;;;;;;;;;5094752;28;19998;-68
2023/01/09 01:59:05;;;;;;;;;;;;;;;;;;5094294;28;19915;-68
2023/01/09 02:01:32;;;;;;;;;;;;;;;;;;5095108;28;19915;-68
2023/01/09 02:03:58;;;;;;;;;;;;;;;;;;5094730;28;19929;-68
2023/01/09 02:06:24;;;;;;;;;;;;;;;;;;5095002;28;19916;-68
2023/01/09 02:08:50;;;;;;;;;;;;;;;;;;5094600;28;19909;-67
2023/01/09 02:11:16;;;;;;;;;;;;;;;;;;5094973;28;19975;-67
2023/01/09 02:13:42;;;;;;;;;;;;;;;;;;5095034;28;20045;-68
2023/01/09 02:16:08;;;;;;;;;;;;;;;;;;5076064;28;20372;-67
2023/01/09 02:18:34;;;;;;;;;;;;;;;;;;5076618;28;19913;-67
2023/01/09 02:21:00;;;;;;;;;;;;;;;;;;5076504;28;19909;-67
2023/01/09 02:23:25;;;;;;;;;;;;;;;;;;5076044;28;20006;-67
2023/01/09 02:25:51;;;;;;;;;;;;;;;;;;5076421;28;19958;-67
2023/01/09 02:28:17;;;;;;;;;;;;;;;;;;5076405;28;19908;-67
2023/01/09 02:30:43;;;;;;;;;;;;;;;;;;5094511;28;19912;-66
2023/01/09 02:33:09;;;;;;;;;;;;;;;;;;5094772;28;19908;-67
2023/01/09 02:35:35;;;;;;;;;;;;;;;;;;5094609;28;19916;-67
2023/01/09 02:38:01;;;;;;;;;;;;;;;;;;5094104;28;20004;-67
2023/01/09 02:40:27;;;;;;;;;;;;;;;;;;5094459;28;19908;-68
2023/01/09 02:42:53;;;;;;;;;;;;;;;;;;5076485;28;19912;-68
2023/01/09 02:45:19;;;;;;;;;;;;;;;;;;5093976;28;19953;-69
2023/01/09 02:47:45;;;;;;;;;;;;;;;;;;5076556;28;19931;-67
2023/01/09 02:50:11;;;;;;;;;;;;;;;;;;5094280;28;19915;-68
2023/01/09 02:52:37;;;;;;;;;;;;;;;;;;5093852;28;19916;-68
2023/01/09 02:55:03;;;;;;;;;;;;;;;;;;5075980;28;20149;-68
2023/01/09 02:57:29;;;;;;;;;;;;;;;;;;5094221;28;19913;-68
2023/01/09 02:59:55;;;;;;;;;;;;;;;;;;5075694;28;20351;-67
2023/01/09 03:02:21;;;;;;;;;;;;;;;;;;5075975;28;20318;-67
2023/01/09 03:04:47;;;;;;;;;;;;;;;;;;5075966;28;20272;-67
2023/01/09 03:07:13;;;;;;;;;;;;;;;;;;5093615;28;20275;-67
2023/01/09 03:09:39;;;;;;;;;;;;;;;;;;5094280;28;19954;-68
2023/01/09 03:12:05;;;;;;;;;;;;;;;;;;5093322;28;19952;-68
2023/01/09 03:14:31;;;;;;;;;;;;;;;;;;5093844;28;19931;-69
2023/01/09 03:16:56;;;;;;;;;;;;;;;;;;5093968;28;19908;-69
2023/01/09 03:19:22;;;;;;;;;;;;;;;;;;5093582;28;19915;-68
2023/01/09 03:21:48;;;;;;;;;;;;;;;;;;5093972;28;19908;-68
2023/01/09 03:24:14;;;;;;;;;;;;;;;;;;5075805;28;20424;-68
2023/01/09 03:26:40;;;;;;;;;;;;;;;;;;5075350;28;19915;-68
2023/01/09 03:29:06;;;;;;;;;;;;;;;;;;5093968;28;19908;-68
2023/01/09 03:31:32;;;;;;;;;;;;;;;;;;5093924;28;19908;-66
2023/01/09 03:33:58;;;;;;;;;;;;;;;;;;5093506;28;19940;-67
2023/01/09 03:36:24;;;;;;;;;;;;;;;;;;5093653;28;19927;-67
2023/01/09 03:38:50;;;;;;;;;;;;;;;;;;5093812;28;19954;-67
2023/01/09 03:41:16;;;;;;;;;;;;;;;;;;5093407;28;19908;-67
2023/01/09 03:43:42;;;;;;;;;;;;;;;;;;5093681;28;20349;-67
2023/01/09 03:46:08;;;;;;;;;;;;;;;;;;5093681;28;19952;-67
2023/01/09 03:48:34;;;;;;;;;;;;;;;;;;5093300;28;19912;-67
2023/01/09 03:51:00;;;;;;;;;;;;;;;;;;5093693;28;19943;-67
2023/01/09 03:53:26;;;;;;;;;;;;;;;;;;5075478;28;20330;-67
2023/01/09 03:55:51;;;;;;;;;;;;;;;;;;5075067;28;20351;-67
2023/01/09 03:58:17;;;;;;;;;;;;;;;;;;5093782;28;19953;-69
2023/01/09 04:00:44;;;;;;;;;;;;;;;;;;5093556;28;19954;-68
2023/01/09 04:03:10;;;;;;;;;;;;;;;;;;5093130;28;19915;-67
2023/01/09 04:05:36;;;;;;;;;;;;;;;;;;5093458;28;19908;-67
2023/01/09 04:08:02;;;;;;;;;;;;;;;;;;5093456;28;19957;-67
2023/01/09 04:10:28;;;;;;;;;;;;;;;;;;5093106;28;19915;-68
2023/01/09 04:12:54;;;;;;;;;;;;;;;;;;5075305;28;20265;-67
2023/01/09 04:15:20;;;;;;;;;;;;;;;;;;5074647;28;19924;-67
2023/01/09 04:17:46;;;;;;;;;;;;;;;;;;5093380;28;20001;-67
2023/01/09 04:20:12;;;;;;;;;;;;;;;;;;5093348;28;20360;-67
2023/01/09 04:22:38;;;;;;;;;;;;;;;;;;5093902;28;20314;-67
2023/01/09 04:25:04;;;;;;;;;;;;;;;;;;5096972;28;20283;-67
2023/01/09 04:27:30;;;;;;;;;;;;;;;;;;5078749;28;20299;-68
2023/01/09 04:29:56;;;;;;;;;;;;;;;;;;5096520;28;20374;-67
2023/01/09 04:32:22;;;;;;;;;;;;;;;;;;5096833;28;20041;-67
2023/01/09 04:34:48;;;;;;;;;;;;;;;;;;5096780;28;19909;-68
2023/01/09 04:37:13;;;;;;;;;;;;;;;;;;5096554;28;19954;-69
2023/01/09 04:39:42;;;;;;;;;;;;;;;;;;5096745;28;19961;-68
2023/01/09 04:42:08;;;;;;;;;;;;;;;;;;5078419;28;20387;-67
2023/01/09 04:44:34;;;;;;;;;;;;;;;;;;5096153;28;19912;-68
2023/01/09 04:47:00;;;;;;;;;;;;;;;;;;5096745;28;20002;-67
2023/01/09 04:49:26;;;;;;;;;;;;;;;;;;5096572;28;19954;-67
2023/01/09 04:51:52;;;;;;;;;;;;;;;;;;5096325;28;19908;-67
2023/01/09 04:54:18;;;;;;;;;;;;;;;;;;5096455;28;19931;-67
2023/01/09 04:56:44;;;;;;;;;;;;;;;;;;5096414;28;19960;-67
2023/01/09 04:59:10;;;;;;;;;;;;;;;;;;5095927;28;19990;-67
2023/01/09 05:01:36;;;;;;;;;;;;;;;;;;5096350;28;19908;-68
2023/01/09 05:04:02;;;;;;;;;;;;;;;;;;5096249;28;19912;-68
2023/01/09 05:06:28;;;;;;;;;;;;;;;;;;5077826;28;19908;-68
2023/01/09 05:08:55;;;;;;;;;;;;;;;;;;5096379;28;19919;-69
2023/01/09 05:11:21;;;;;;;;;;;;;;;;;;5096300;28;20387;-68
2023/01/09 05:13:47;;;;;;;;;;;;;;;;;;5095917;28;19909;-68
2023/01/09 05:16:13;;;;;;;;;;;;;;;;;;5077805;28;19920;-68
2023/01/09 05:18:39;;;;;;;;;;;;;;;;;;5095763;28;19931;-68
2023/01/09 05:21:05;;;;;;;;;;;;;;;;;;5096257;28;19917;-67
2023/01/09 05:23:31;;;;;;;;;;;;;;;;;;5095861;28;19912;-69
2023/01/09 05:25:56;;;;;;;;;;;;;;;;;;5095486;28;19931;-69
2023/01/09 05:28:22;;;;;;;;;;;;;;;;;;5095959;28;19908;-69
2023/01/09 05:30:48;;;;;;;;;;;;;;;;;;5095794;28;19915;-69
2023/01/09 05:33:14;;;;;;;;;;;;;;;;;;5095258;28;19941;-68
2023/01/09 05:35:40;;;;;;;;;;;;;;;;;;5095620;28;19915;-69
2023/01/09 05:38:06;;;;;;;;;;;;;;;;;;5095704;28;19948;-68
2023/01/09 05:40:32;;;;;;;;;;;;;;;;;;5095219;28;19908;-70
2023/01/09 05:42:58;;;;;;;;;;;;;;;;;;5095602;28;20040;-69
2023/01/09 05:45:26;;;;;;;;;;;;;;;;;;5095543;28;20003;-69
2023/01/09 05:47:51;;;;;;;;;;;;;;;;;;5095098;28;19908;-68
2023/01/09 05:50:17;;;;;;;;;;;;;;;;;;5095515;28;19915;-68
2023/01/09 05:52:43;;;;;;;;;;;;;;;;;;5077164;28;19912;-67
2023/01/09 05:55:09;;;;;;;;;;;;;;;;;;5094874;28;19916;-68
2023/01/09 05:57:35;;;;;;;;;;;;;;;;;;5095259;28;19915;-68
2023/01/09 06:00:01;;;;;;;;;;;;;;;;;;5076977;28;19908;-67
2023/01/09 06:02:27;;;;;;;;;;;;;;;;;;5094728;28;19908;-68
2023/01/09 06:04:53;;;;;;;;;;;;;;;;;;5095048;28;19960;-66
2023/01/09 06:07:19;;;;;;;;;;;;;;;;;;5095332;28;19916;-67
2023/01/09 06:09:45;;;;;;;;;;;;;;;;;;5094695;28;19908;-67
2023/01/09 06:12:11;;;;;;;;;;;;;;;;;;5094964;28;19915;-68
2023/01/09 06:14:37;;;;;;;;;;;;;;;;;;5094857;28;20387;-68
2023/01/09 06:17:03;;;;;;;;;;;;;;;;;;5094569;28;20435;-67
2023/01/09 06:19:29;;;;;;;;;;;;;;;;;;5094930;28;20261;-68
2023/01/09 06:21:55;;;;;;;;;;;;;;;;;;5094457;28;20001;-67
2023/01/09 06:24:21;;;;;;;;;;;;;;;;;;5094821;28;19912;-67
2023/01/09 06:26:46;;;;;;;;;;;;;;;;;;5094702;28;20261;-67
2023/01/09 06:29:12;;;;;;;;;;;;;;;;;;5094606;28;20315;-67
2023/01/09 06:31:38;;;;;;;;;;;;;;;;;;5076450;28;20339;-67
2023/01/09 06:34:04;;;;;;;;;;;;;;;;;;5094663;28;20306;-68
2023/01/09 06:36:30;;;;;;;;;;;;;;;;;;5094137;28;20284;-68
2023/01/09 06:38:56;;;;;;;;;;;;;;;;;;5094438;28;20273;-68
2023/01/09 06:41:22;;;;;;;;;;;;;;;;;;5094859;28;20282;-68
2023/01/09 06:43:48;;;;;;;;;;;;;;;;;;5094409;28;20264;-66
2023/01/09 06:46:14;;;;;;;;;;;;;;;;;;5093976;28;19951;-67
2023/01/09 06:48:40;;;;;;;;;;;;;;;;;;5094416;28;19999;-67
2023/01/09 06:51:06;;;;;;;;;;;;;;;;;;5094009;28;19912;-67
2023/01/09 06:53:33;;;;;;;;;;;;;;;;;;5094345;28;19915;-67
2023/01/09 06:56:01;;;;;;;;;;;;;;;;;;5094447;28;19962;-67
2023/01/09 06:58:27;;;;;;;;;;;;;;;;;;5075672;28;19912;-68
2023/01/09 07:00:54;;;;;;;;;;;;;;;;;;5094238;28;19908;-68
2023/01/09 07:03:21;;;;;;;;;;;;;;;;;;5094156;28;19934;-68
2023/01/09 07:05:47;;;;;;;;;;;;;;;;;;5093684;28;19908;-67
2023/01/09 07:08:13;;;;;;;;;;;;;;;;;;5076035;28;19908;-67
2023/01/09 07:10:39;;;;;;;;;;;;;;;;;;5094169;28;19915;-67
2023/01/09 07:13:05;;;;;;;;;;;;;;;;;;5075607;28;19909;-67
2023/01/09 07:15:31;;;;;;;;;;;;;;;;;;5093804;28;19920;-68
2023/01/09 07:17:57;;;;;;;;;;;;;;;;;;5094262;28;20364;-68
2023/01/09 07:20:23;;;;;;;;;;;;;;;;;;5093503;28;19912;-68
2023/01/09 07:22:49;;;;;;;;;;;;;;;;;;5093897;28;20388;-68
2023/01/09 07:25:15;;;;;;;;;;;;;;;;;;5075401;28;20265;-68
2023/01/09 07:27:41;;;;;;;;;;;;;;;;;;5075702;28;19970;-69
2023/01/09 07:30:07;;;;;;;;;;;;;;;;;;5093891;28;19965;-68
2023/01/09 07:32:33;;;;;;;;;;;;;;;;;;5093586;28;19912;-68
2023/01/09 07:34:59;;;;;;;;;;;;;;;;;;5094186;28;19931;-67
2023/01/09 07:37:25;;;;;;;;;;;;;;;;;;5093823;28;20364;-68
2023/01/09 07:39:51;;;;;;;;;;;;;;;;;;5093343;28;19909;-68
2023/01/09 07:42:17;;;;;;;;;;;;;;;;;;5093739;28;19962;-67
2023/01/09 07:44:43;;;;;;;;;;;;;;;;;;5094039;28;20344;-67
2023/01/09 07:47:09;;;;;;;;;;;;;;;;;;5093430;28;20360;-67
2023/01/09 07:49:35;;;;;;;;;;;;;;;;;;5075548;28;19908;-67
2023/01/09 07:52:01;;;;;;;;;;;;;;;;;;5093606;28;19908;-67
2023/01/09 07:54:27;;;;;;;;;;;;;;;;;;5093281;28;19954;-69
2023/01/09 07:56:53;;;;;;;;;;;;;;;;;;5093485;28;19920;-68
2023/01/09 07:59:19;;;;;;;;;;;;;;;;;;5097655;28;19912;-68
2023/01/09 08:01:45;;;;;;;;;;;;;;;;;;5097194;28;19915;-67
2023/01/09 08:04:11;;;;;;;;;;;;;;;;;;5097521;28;19931;-68
2023/01/09 08:06:37;;;;;;;;;;;;;;;;;;5097417;28;19933;-67
2023/01/09 08:09:02;;;;;;;;;;;;;;;;;;5096918;28;19908;-70
2023/01/09 08:11:28;;;;;;;;;;;;;;;;;;5097411;28;19916;-67
2023/01/09 08:13:54;;;;;;;;;;;;;;;;;;5097300;28;19912;-67
2023/01/09 08:16:20;;;;;;;;;;;;;;;;;;5078440;28;19959;-68
2023/01/09 08:18:46;;;;;;;;;;;;;;;;;;5097217;28;19916;-68
2023/01/09 08:21:13;;;;;;;;;;;;;;;;;;5079258;28;20352;-68
2023/01/09 08:23:39;;;;;;;;;;;;;;;;;;5078558;28;19999;-68
2023/01/09 08:26:05;;;;;;;;;;;;;;;;;;5097018;28;20371;-68
2023/01/09 08:28:31;;;;;;;;;;;;;;;;;;5096658;28;19912;-68
2023/01/09 08:30:56;;;;;;;;;;;;;;;;;;5096960;28;19908;-69
2023/01/09 08:33:22;;;;;;;;;;;;;;;;;;5096900;28;19954;-68
2023/01/09 08:35:48;;;;;;;;;;;;;;;;;;5096404;28;19920;-67
2023/01/09 08:38:14;;;;;;;;;;;;;;;;;;5096798;28;19977;-67
2023/01/09 08:40:40;;;;;;;;;;;;;;;;;;5078586;28;19908;-67
2023/01/09 08:48:35;;;;;;;;;;;;;;;;;;5096690;28;19962;-68
2023/01/09 08:51:01;;;;;;;;;;;;;;;;;;5096146;28;19908;-68
2023/01/09 08:53:28;;;;;;;;;;;;;;;;;;5096498;28;19962;-67
2023/01/09 08:55:54;;;;;;;;;;;;;;;;;;5078294;28;19920;-68
2023/01/09 08:58:20;;;;;;;;;;;;;;;;;;5096034;28;19999;-68
2023/01/09 09:00:46;;;;;;;;;;;;;;;;;;5096433;28;20041;-67
2023/01/09 09:03:12;;;;;;;;;;;;;;;;;;5096603;28;20386;-67
2023/01/09 09:05:38;;;;;;;;;;;;;;;;;;5095901;28;19909;-68
2023/01/09 09:08:05;;;;;;;;;;;;;;;;;;5077745;28;19959;-68
2023/01/09 09:10:30;;;;;;;;;;;;;;;;;;5096519;28;19909;-68
2023/01/09 09:12:57;;;;;;;;;;;;;;;;;;5095729;28;20271;-67
2023/01/09 09:15:23;;;;;;;;;;;;;;;;;;5095881;28;19979;-68
2023/01/09 09:17:49;;;;;;;;;;;;;;;;;;5077365;28;20473;-68
2023/01/09 09:20:15;;;;;;;;;;;;;;;;;;5096167;28;19983;-68
2023/01/09 09:22:41;;;;;;;;;;;;;;;;;;5096138;28;20001;-68
2023/01/09 09:25:06;;;;;;;;;;;;;;;;;;5095500;28;19908;-67
2023/01/09 09:27:32;;;;;;;;;;;;;;;;;;5095828;28;19962;-67
2023/01/09 09:29:58;;;;;;;;;;;;;;;;;;5095771;28;20364;-68
2023/01/09 09:32:24;;;;;;;;;;;;;;;;;;5077146;28;19962;-68
2023/01/09 09:34:50;;;;;;;;;;;;;;;;;;5095697;28;19952;-67
2023/01/09 09:37:16;;;;;;;;;;;;;;;;;;5077537;28;19919;-68
2023/01/09 09:39:42;;;;;;;;;;;;;;;;;;5095162;28;19909;-68
2023/01/09 09:44:53;;;;;;;;;;;;;;;;;;5095590;28;19993;-68
2023/01/09 09:47:19;;;;;;;;;;;;;;;;;;5095096;28;19908;-68
2023/01/09 09:49:45;;;;;;;;;;;;;;;;;;5095361;28;19909;-68
2023/01/09 09:52:11;;;;;;;;;;;;;;;;;;5077189;28;20003;-68
2023/01/09 09:54:37;;;;;;;;;;;;;;;;;;5094886;28;19961;-68
2023/01/09 09:57:03;;;;;;;;;;;;;;;;;;5077016;28;19960;-68
2023/01/09 09:59:29;;;;;;;;;;;;;;;;;;5095213;28;20024;-68
2023/01/09 10:01:55;;;;;;;;;;;;;;;;;;5076658;28;19908;-68
2023/01/09 10:04:21;;;;;;;;;;;;;;;;;;5076974;28;19938;-67
2023/01/09 10:06:46;;;;;;;;;;;;;;;;;;5095187;28;20376;-67
2023/01/09 10:09:12;;;;;;;;;;;;;;;;;;5094597;28;20287;-68
2023/01/09 10:11:38;;;;;;;;;;;;;;;;;;5094986;28;19908;-68
2023/01/09 10:14:04;;;;;;;;;;;;;;;;;;5094509;28;19966;-68
2023/01/09 10:16:30;;;;;;;;;;;;;;;;;;5094784;28;19981;-69
2023/01/09 10:18:56;;;;;;;;;;;;;;;;;;5094896;28;19908;-68
2023/01/09 10:21:22;;;;;;;;;;;;;;;;;;5075576;28;20377;-68
2023/01/09 10:23:48;;;;;;;;;;;;;;;;;;5095144;28;20253;-68
2023/01/09 10:26:14;;;;;;;;;;;;;;;;;;5076618;28;19911;-69
2023/01/09 10:28:40;;;;;;;;;;;;;;;;;;5094373;28;19908;-67
2023/01/09 10:31:06;;;;;;;;;;;;;;;;;;5094619;28;19912;-68
2023/01/09 10:33:32;;;;;;;;;;;;;;;;;;5094574;28;19915;-68
2023/01/09 10:35:58;;;;;;;;;;;;;;;;;;5094067;28;19916;-67
2023/01/09 10:38:24;;;;;;;;;;;;;;;;;;5094580;28;19951;-68
2023/01/09 10:40:50;;;;;;;;;;;;;;;;;;5094332;28;19953;-69
2023/01/09 10:43:15;;;;;;;;;;;;;;;;;;5093926;28;19909;-68
2023/01/09 10:45:41;;;;;;;;;;;;;;;;;;5094309;28;19915;-68
2023/01/09 10:48:07;;;;;;;;;;;;;;;;;;5094268;28;19977;-68
2023/01/09 10:50:33;;;;;;;;;;;;;;;;;;5093910;28;19999;-68
2023/01/09 10:53:01;;;;;;;;;;;;;;;;;;5094268;28;19908;-68
2023/01/09 10:55:26;;;;;;;;;;;;;;;;;;5094172;28;20469;-68
2023/01/09 10:57:52;;;;;;;;;;;;;;;;;;5093760;28;19912;-68
2023/01/09 11:00:18;;;;;;;;;;;;;;;;;;5094252;28;20046;-68
2023/01/09 11:02:44;;;;;;;;;;;;;;;;;;5094426;28;19908;-68
2023/01/09 11:05:10;;;;;;;;;;;;;;;;;;5093728;28;19908;-69
2023/01/09 11:07:36;;;;;;;;;;;;;;;;;;5094637;28;20306;-68
2023/01/09 11:10:02;;;;;;;;;;;;;;;;;;5093998;28;20355;-67
2023/01/09 11:12:28;;;;;;;;;;;;;;;;;;5093547;28;20287;-68
2023/01/09 11:14:54;;;;;;;;;;;;;;;;;;5075627;28;19924;-68
2023/01/09 11:17:20;;;;;;;;;;;;;;;;;;5093891;28;19916;-69
2023/01/09 11:19:46;;;;;;;;;;;;;;;;;;5093908;28;19990;-69
2023/01/09 11:22:12;;;;;;;;;;;;;;;;;;5093875;28;19909;-68
2023/01/09 11:24:38;;;;;;;;;;;;;;;;;;5093444;28;19908;-68
2023/01/09 11:27:04;;;;;;;;;;;;;;;;;;5093863;28;20007;-68
2023/01/09 11:29:30;;;;;;;;;;;;;;;;;;5093896;28;19915;-69
2023/01/09 11:31:57;;;;;;;;;;;;;;;;;;5077008;28;19909;-68
2023/01/09 11:34:23;;;;;;;;;;;;;;;;;;5098044;28;20276;-68
2023/01/09 11:36:48;;;;;;;;;;;;;;;;;;5079850;28;19917;-67
2023/01/09 11:39:14;;;;;;;;;;;;;;;;;;5097483;28;19908;-67
2023/01/09 11:41:40;;;;;;;;;;;;;;;;;;5098538;28;19908;-67
2023/01/09 11:44:06;;;;;;;;;;;;;;;;;;5079767;28;20300;-68
2023/01/09 11:46:32;;;;;;;;;;;;;;;;;;5079230;28;20322;-67
2023/01/09 11:48:58;;;;;;;;;;;;;;;;;;5097854;28;20319;-68
2023/01/09 11:51:24;;;;;;;;;;;;;;;;;;5097793;28;19912;-68
2023/01/09 11:53:50;;;;;;;;;;;;;;;;;;5097308;28;19962;-68
2023/01/09 12:02:51;;;;;;;;;;;;;;;;;;5091827;27;19921;-67
2023/01/09 12:07:01;;;;;;;;;;;;;;;;;;5111705;27;19922;-68
2023/01/09 12:09:27;;;;;;;;;;;;;;;;;;5110431;28;20007;-67
2023/01/09 12:11:53;;;;;;;;;;;;;;;;;;5110417;28;19908;-67
2023/01/09 12:14:43;;;;;;;;;;;;;;;;;;5152934;27;20018;-68
2023/01/09 12:17:09;;;;;;;;;;;;;;;;;;5134463;27;19958;-68
2023/01/09 12:19:36;;;;;;;;;;;;;;;;;;5152923;27;20036;-68
2023/01/09 12:22:02;;;;;;;;;;;;;;;;;;5152579;27;20365;-68
2023/01/09 12:24:28;;;;;;;;;;;;;;;;;;5152757;27;19911;-69
2023/01/09 12:26:54;;;;;;;;;;;;;;;;;;5152905;27;20374;-69
2023/01/09 12:29:20;;;;;;;;;;;;;;;;;;5133820;27;20370;-69
2023/01/09 12:31:46;;;;;;;;;;;;;;;;;;5134152;27;19998;-68
2023/01/09 12:34:12;;;;;;;;;;;;;;;;;;5134021;27;19922;-68
2023/01/09 12:36:38;;;;;;;;;;;;;;;;;;5152216;27;19907;-67
2023/01/09 12:39:04;;;;;;;;;;;;;;;;;;5152521;27;19912;-69
2023/01/09 12:41:30;;;;;;;;;;;;;;;;;;5134312;27;19914;-67
2023/01/09 12:43:56;;;;;;;;;;;;;;;;;;5152302;27;19912;-67
2023/01/09 12:46:22;;;;;;;;;;;;;;;;;;5152995;27;20369;-68
2023/01/09 12:48:48;;;;;;;;;;;;;;;;;;5133363;27;20260;-69
2023/01/09 12:51:14;;;;;;;;;;;;;;;;;;5152237;27;20389;-68
2023/01/09 12:53:40;;;;;;;;;;;;;;;;;;5152456;27;19968;-68
2023/01/09 12:56:06;;;;;;;;;;;;;;;;;;5133333;27;20255;-68
2023/01/09 12:58:32;;;;;;;;;;;;;;;;;;5152172;27;19907;-68
2023/01/09 13:00:58;;;;;;;;;;;;;;;;;;5133458;27;20419;-68
2023/01/09 13:03:24;;;;;;;;;;;;;;;;;;5151672;27;19907;-68
2023/01/09 13:05:50;;;;;;;;;;;;;;;;;;5151989;27;19915;-68
2023/01/09 13:08:15;;;;;;;;;;;;;;;;;;5151963;27;19930;-67
2023/01/09 13:10:41;;;;;;;;;;;;;;;;;;5151501;27;20267;-68
2023/01/09 13:13:08;;;;;;;;;;;;;;;;;;5151593;27;19964;-68
2023/01/09 13:15:34;;;;;;;;;;;;;;;;;;5151762;27;20377;-68
2023/01/09 13:18:00;;;;;;;;;;;;;;;;;;5151494;27;20002;-68
2023/01/09 13:20:25;;;;;;;;;;;;;;;;;;5151741;27;20275;-68
2023/01/09 13:22:51;;;;;;;;;;;;;;;;;;5151661;27;19918;-68
2023/01/09 13:25:17;;;;;;;;;;;;;;;;;;5140302;27;19908;-70
2023/01/09 13:27:43;;;;;;;;;;;;;;;;;;5137818;27;19907;-70
2023/01/09 13:30:09;;;;;;;;;;;;;;;;;;5136497;27;19960;-67
2023/01/09 13:32:35;;;;;;;;;;;;;;;;;;5137307;27;19956;-68
2023/01/09 13:35:01;;;;;;;;;;;;;;;;;;5137844;27;19947;-68
2023/01/09 13:37:27;;;;;;;;;;;;;;;;;;5136348;27;19926;-68
2023/01/09 13:39:53;;;;;;;;;;;;;;;;;;5137160;27;20311;-68
2023/01/09 13:42:34;;;;;;;;;;;;;;;;;;5137865;27;19915;-68
2023/01/09 13:45:00;;;;;;;;;;;;;;;;;;5135801;27;20412;-68
2023/01/09 13:47:26;;;;;;;;;;;;;;;;;;5137697;27;19907;-68
2023/01/09 13:49:52;;;;;;;;;;;;;;;;;;5137409;27;19907;-68
2023/01/09 13:52:18;;;;;;;;;;;;;;;;;;5136841;27;19923;-68
2023/01/09 13:54:44;;;;;;;;;;;;;;;;;;5137258;27;20006;-68
2023/01/09 13:57:10;;;;;;;;;;;;;;;;;;5137208;27;19907;-68
2023/01/09 13:59:36;;;;;;;;;;;;;;;;;;5135514;27;19914;-68
2023/01/09 14:02:02;;;;;;;;;;;;;;;;;;5135823;27;19908;-68
2023/01/09 14:04:28;;;;;;;;;;;;;;;;;;5137030;27;19907;-68
2023/01/09 14:06:54;;;;;;;;;;;;;;;;;;5135345;27;19907;-68
2023/01/09 14:09:20;;;;;;;;;;;;;;;;;;5136943;27;19914;-68
2023/01/09 14:11:46;;;;;;;;;;;;;;;;;;5137106;27;20355;-68
2023/01/09 14:14:12;;;;;;;;;;;;;;;;;;5136304;27;19945;-68
2023/01/09 14:16:38;;;;;;;;;;;;;;;;;;5136840;27;19930;-68
2023/01/09 14:19:04;;;;;;;;;;;;;;;;;;5136669;27;20294;-68
2023/01/09 14:21:30;;;;;;;;;;;;;;;;;;5136471;27;19950;-68
2023/01/09 14:23:56;;;;;;;;;;;;;;;;;;5136516;27;19911;-67
2023/01/09 14:26:21;;;;;;;;;;;;;;;;;;5135396;27;19912;-68
2023/01/09 14:28:47;;;;;;;;;;;;;;;;;;5136341;27;19911;-69
2023/01/09 14:31:13;;;;;;;;;;;;;;;;;;5136663;27;19914;-68
2023/01/09 14:33:39;;;;;;;;;;;;;;;;;;5135130;27;20011;-68
2023/01/09 14:36:05;;;;;;;;;;;;;;;;;;5133822;27;19907;-67
2023/01/09 14:38:31;;;;;;;;;;;;;;;;;;5135133;27;19918;-67
2023/01/09 14:40:57;;;;;;;;;;;;;;;;;;5135149;27;19914;-68
2023/01/09 14:43:24;;;;;;;;;;;;;;;;;;5134625;27;19908;-68
2023/01/09 14:45:50;;;;;;;;;;;;;;;;;;5134969;27;19907;-68
2023/01/09 14:48:15;;;;;;;;;;;;;;;;;;5134547;27;20271;-68
2023/01/09 14:50:45;;;;;;;;;;;;;;;;;;5134873;27;19918;-68
2023/01/09 14:53:11;;;;;;;;;;;;;;;;;;5134798;27;19915;-68
2023/01/09 14:55:37;;;;;;;;;;;;;;;;;;5135628;27;19919;-68
2023/01/09 14:58:03;;;;;;;;;;;;;;;;;;5135962;27;19911;-68
2023/01/09 15:00:28;;;;;;;;;;;;;;;;;;5136201;27;19958;-68
2023/01/09 15:02:54;;;;;;;;;;;;;;;;;;5135737;27;19908;-68
2023/01/09 15:05:20;;;;;;;;;;;;;;;;;;5135875;27;19907;-68
2023/01/09 15:07:46;;;;;;;;;;;;;;;;;;5134506;27;20009;-67
2023/01/09 15:10:12;;;;;;;;;;;;;;;;;;5134147;27;19911;-67
2023/01/09 15:12:38;;;;;;;;;;;;;;;;;;5135654;27;19926;-67
2023/01/09 15:15:04;;;;;;;;;;;;;;;;;;5136224;27;20343;-68
2023/01/09 15:17:30;;;;;;;;;;;;;;;;;;5133984;27;20411;-68
2023/01/09 15:19:56;;;;;;;;;;;;;;;;;;5135582;27;19908;-67
2023/01/09 15:22:22;;;;;;;;;;;;;;;;;;5135550;27;19904;-69
2023/01/09 15:24:48;;;;;;;;;;;;;;;;;;5135085;27;19907;-68
2023/01/09 15:27:14;;;;;;;;;;;;;;;;;;5135523;27;19910;-68
2023/01/09 15:29:40;;;;;;;;;;;;;;;;;;5135370;27;19907;-68
2023/01/09 15:32:06;;;;;;;;;;;;;;;;;;5135049;27;19904;-69
2023/01/09 15:34:32;;;;;;;;;;;;;;;;;;5135369;27;19916;-68
2023/01/09 15:36:58;;;;;;;;;;;;;;;;;;5135383;27;19968;-67
2023/01/09 15:39:24;;;;;;;;;;;;;;;;;;5134832;27;19951;-67
2023/01/09 15:44:35;;;;;;;;;;;;;;;;;;5134793;27;19994;-68
2023/01/09 15:47:01;;;;;;;;;;;;;;;;;;5135009;27;20080;-68
2023/01/09 15:49:27;;;;;;;;;;;;;;;;;;5135074;27;19961;-67
2023/01/09 15:51:53;;;;;;;;;;;;;;;;;;5134673;27;19911;-67
2023/01/09 15:54:19;;;;;;;;;;;;;;;;;;5133736;27;19916;-68
2023/01/09 15:56:45;;;;;;;;;;;;;;;;;;5134989;27;20378;-67
2023/01/09 15:59:11;;;;;;;;;;;;;;;;;;5134559;27;19954;-68
2023/01/09 16:01:37;;;;;;;;;;;;;;;;;;5135006;27;19951;-68
2023/01/09 16:04:03;;;;;;;;;;;;;;;;;;5134911;27;19907;-68
2023/01/09 16:06:29;;;;;;;;;;;;;;;;;;5134749;27;19990;-68
2023/01/09 16:08:56;;;;;;;;;;;;;;;;;;5134938;27;19942;-68
2023/01/09 16:11:22;;;;;;;;;;;;;;;;;;5133546;28;19907;-68
2023/01/09 16:13:48;;;;;;;;;;;;;;;;;;5134171;28;19949;-68
2023/01/09 16:16:14;;;;;;;;;;;;;;;;;;5134803;28;19907;-69
2023/01/09 16:18:40;;;;;;;;;;;;;;;;;;5134801;28;19908;-69
2023/01/09 16:21:06;;;;;;;;;;;;;;;;;;5133121;28;19915;-67
2023/01/09 16:23:32;;;;;;;;;;;;;;;;;;5134746;28;19921;-68
2023/01/09 16:25:58;;;;;;;;;;;;;;;;;;5134736;28;19911;-67
2023/01/09 16:28:27;;;;;;;;;;;;;;;;;;5134321;28;20317;-68
2023/01/09 16:30:53;;;;;;;;;;;;;;;;;;5134713;27;19915;-68
2023/01/09 16:33:18;;;;;;;;;;;;;;;;;;5134559;28;19915;-67
2023/01/09 16:35:44;;;;;;;;;;;;;;;;;;5132956;28;19914;-68
2023/01/09 16:38:10;;;;;;;;;;;;;;;;;;5133346;28;19908;-68
2023/01/09 16:40:36;;;;;;;;;;;;;;;;;;5134551;28;19959;-69
2023/01/09 16:43:02;;;;;;;;;;;;;;;;;;5134186;28;19908;-68
2023/01/09 16:45:28;;;;;;;;;;;;;;;;;;5134584;28;19919;-68
2023/01/09 16:47:56;;;;;;;;;;;;;;;;;;5134233;28;19907;-68
2023/01/09 16:50:22;;;;;;;;;;;;;;;;;;5134591;27;19911;-68
2023/01/09 16:52:48;;;;;;;;;;;;;;;;;;5133099;28;19995;-68
2023/01/09 16:55:14;;;;;;;;;;;;;;;;;;5134006;28;19911;-68
2023/01/09 16:57:40;;;;;;;;;;;;;;;;;;5134393;28;19907;-68
2023/01/09 17:00:06;;;;;;;;;;;;;;;;;;5135992;27;19947;-68